Juan de Fuca Strait - west entrance: Past 24 Hour Conditions

 

Sentry Shoal - 46131

08:00 PM PDT 18 October 2017Buoy position: 49.92N 125.0W
Disclaimer

This table is a summary of hourly weather conditions for the past 24 hours.
Please note that these observations might not always be representative of weather conditions over their associated marine area.

Date / Time
(PDT)
Wind(knots) Wave height(m) Wave period(s) Pressure(kPa) Air tempC) Water tempC)
18 October 2017
20:00 SE 16 gust 23 1.2 4.0 99.5 12 11
19:00 SE 19 gust 21 1.4 5.0 99.4 12 11
18:00 SE 23 gust 29 1.4 4.0 99.3 11 11
17:00 SE 23 gust 27 1.6 5.0 99.3 11 11
16:00 SE 19 gust 23 1.5 5.0 99.4 11 11
15:00 SE 23 gust 27 1.3 6.0 99.4 11 11
14:00 S 12 gust 14 1.7 6.0 99.8 9 11
13:00 SE 19 gust 25 1.7 6.0 99.9 10 11
12:00 SE 21 gust 27 1.6 6.0 99.9 10 11
11:00 SE 18 gust 21 1.6 6.0 100.1 9 11
10:00 ESE 21 gust 27 1.8 6.0 100.1 9 11
9:00 SE 23 gust 29 1.8 6.0 100.3 9 11
8:00 SE 29 gust 35 2.0 6.0 100.4 9 11
7:00 SE 27 gust 35 1.8 5.0 100.6 10 11
6:00 SE 29 gust 37 1.7 5.0 100.7 11 11
5:00 SE 23 gust 27 1.3 4.0 100.9 11 11
4:00 SE 25 gust 31 1.0 4.0 101.1 11 11
3:00 SE 21 gust 27 0.8 4.0 101.3 11 11
2:00 ESE 18 gust 23 0.5 3.0 101.4 11 11
1:00 SE 18 gust 21 0.4 2.0 101.5 11 11
0:00 ESE 14 gust 16 0.1 2.0 101.6 11 11
17 October 2017
23:00 SSE 6 gust 8 0.1 4.0 101.7 11 11
22:00 ESE 4 gust 4 0.1 4.0 101.7 10 11
21:00 SSW 4 gust 4 0.1 4.0 101.8 11 11
20:00 WSW 2 gust 4 0.1 3.0 101.8 11 11

Zoom-in to make a selection

Map of Pacific - Georgia Basin marine weather areas Tsawwassen Ferry Terminal Sentry Shoal - 46131 Halibut Bank - 46146 La Perouse Bank - 46206 Discovery Island Esquimalt Harbour Kelp Reefs Malahat Race Rocks Lightstation Saturna Island Sheringham Point University of Victoria Victoria Gonzales Victoria Int'l Airport Ballenas Islands Campbell River Airport Comox Airport Entrance Island Fanny Island Nanaimo Airport Sisters Islets Estevan Point Tofino Airport Grief Point Powell River Airport Sechelt Point Atkinson Sand Heads Lightstation Vancouver Harbour Vancouver Int'l Airport West Vancouver Port Alberni Howe Sound - Pam Rocks Squamish Airport
Legend:
buoy Buoy
land station Land Station

Pacific - Georgia Basin Area

Another Region

What we are doing

Features

Summer 2017: Significant weather across Canada

By analyzing weather events, ECCC is collecting more information as to how our climate is changing.

Date modified: